DAL210 FACT-KATL
Flight info
| Callsign | DAL210 |
|---|---|
| Flight time | N/A |
| Altitude | 34000 |
| Route | IMSOM1B IMSOM UQ36 APKIN UQ15 OKDOG DCT 30S010E 26S005E 22S000W 16S005W 10S010W 05S015W/N0500F360 00N020W DCT BUVUK UL435 BUXON/N0492F380 UL435 BUTUX/M085F380 L435 FIVZE/M085F400 L435 JAINS/N0485F400 AR12 DEDDY DCT HOTHH JJEDI3 |
| Aircraft | A359/H-SDE2E3GHIJ3J4J5LM1ORWXY/LB1D1 |
Departure
| Time | 2026-05-06 19:08 |
|---|---|
| Airport | Cape Town International Airport (FACT) |
Arrival
| Time | N/A |
|---|---|
| Airport | Hartsfield Jackson Atlanta International Airport (KATL) |
| Time | Latitude | Longitude | Altitude | Speed | Heading |
|---|---|---|---|---|---|
| 2026-05-06 18:19 | -33.96773 | 18.59754 | 163 ft | 0 kts | 256° |
| 2026-05-06 18:53 | -33.96768 | 18.59775 | 163 ft | 4 kts | 245° |
| 2026-05-06 18:54 | -33.96755 | 18.59802 | 163 ft | 4 kts | 241° |
| 2026-05-06 18:54 | -33.96748 | 18.59825 | 163 ft | 4 kts | 272° |
| 2026-05-06 18:54 | -33.96751 | 18.59846 | 163 ft | 4 kts | 317° |
| 2026-05-06 18:54 | -33.96765 | 18.59856 | 163 ft | 4 kts | 345° |
| 2026-05-06 18:55 | -33.96789 | 18.59864 | 163 ft | 1 kts | 345° |
| 2026-05-06 18:55 | -33.96790 | 18.59864 | 163 ft | 0 kts | 345° |
| 2026-05-06 19:00 | -33.96789 | 18.59864 | 163 ft | 0 kts | 345° |
| 2026-05-06 19:00 | -33.96771 | 18.59858 | 163 ft | 6 kts | 345° |
| 2026-05-06 19:00 | -33.96712 | 18.59839 | 163 ft | 10 kts | 345° |
| 2026-05-06 19:00 | -33.96646 | 18.59819 | 163 ft | 10 kts | 347° |
| 2026-05-06 19:01 | -33.96578 | 18.59799 | 163 ft | 11 kts | 345° |
| 2026-05-06 19:01 | -33.96499 | 18.59777 | 163 ft | 12 kts | 349° |
| 2026-05-06 19:01 | -33.96415 | 18.59759 | 163 ft | 12 kts | 351° |
| 2026-05-06 19:01 | -33.96331 | 18.59742 | 163 ft | 12 kts | 351° |
| 2026-05-06 19:02 | -33.96247 | 18.59730 | 162 ft | 12 kts | 6° |
| 2026-05-06 19:02 | -33.96174 | 18.59791 | 160 ft | 14 kts | 45° |
| 2026-05-06 19:02 | -33.96152 | 18.59819 | 160 ft | 0 kts | 45° |
| 2026-05-06 19:02 | -33.96140 | 18.59833 | 161 ft | 0 kts | 45° |
| 2026-05-06 19:06 | -33.96138 | 18.59835 | 161 ft | 4 kts | 44° |
| 2026-05-06 19:06 | -33.96083 | 18.59901 | 161 ft | 13 kts | 45° |
| 2026-05-06 19:06 | -33.96036 | 18.59994 | 160 ft | 13 kts | 95° |
| 2026-05-06 19:07 | -33.96094 | 18.60043 | 160 ft | 11 kts | 164° |
| 2026-05-06 19:07 | -33.96349 | 18.60123 | 160 ft | 71 kts | 165° |
| 2026-05-06 19:07 | -33.97040 | 18.60341 | 163 ft | 133 kts | 165° |
| 2026-05-06 19:07 | -33.98109 | 18.60683 | 272 ft | 177 kts | 164° |
| 2026-05-06 19:08 | -33.99313 | 18.61099 | 941 ft | 179 kts | 162° |
| 2026-05-06 19:08 | -34.00503 | 18.61501 | 1789 ft | 181 kts | 162° |
| 2026-05-06 19:08 | -34.01753 | 18.61921 | 2053 ft | 193 kts | 162° |
| 2026-05-06 19:08 | -34.03097 | 18.62373 | 2230 ft | 209 kts | 161° |
| 2026-05-06 19:09 | -34.04565 | 18.62873 | 2376 ft | 228 kts | 161° |
| 2026-05-06 19:09 | -34.06124 | 18.63403 | 2654 ft | 241 kts | 161° |
| 2026-05-06 19:09 | -34.07748 | 18.63910 | 3234 ft | 241 kts | 167° |
| 2026-05-06 19:09 | -34.09442 | 18.63787 | 3728 ft | 250 kts | 192° |
| 2026-05-06 19:10 | -34.11053 | 18.62966 | 4304 ft | 252 kts | 202° |
| 2026-05-06 19:10 | -34.12615 | 18.61993 | 4882 ft | 253 kts | 203° |
| 2026-05-06 19:10 | -34.14176 | 18.60997 | 5397 ft | 254 kts | 203° |
| 2026-05-06 19:10 | -34.15753 | 18.60007 | 5907 ft | 257 kts | 203° |
| 2026-05-06 19:11 | -34.17342 | 18.59010 | 6456 ft | 258 kts | 203° |
| 2026-05-06 19:11 | -34.18943 | 18.58013 | 6958 ft | 260 kts | 203° |
| 2026-05-06 19:11 | -34.20560 | 18.57013 | 7487 ft | 262 kts | 203° |
| 2026-05-06 19:11 | -34.22192 | 18.56011 | 8037 ft | 264 kts | 203° |
| 2026-05-06 19:12 | -34.23833 | 18.55010 | 8585 ft | 265 kts | 203° |
| 2026-05-06 19:12 | -34.25486 | 18.54011 | 9155 ft | 267 kts | 203° |
| 2026-05-06 19:12 | -34.27154 | 18.53007 | 9697 ft | 269 kts | 203° |
| 2026-05-06 19:12 | -34.28799 | 18.51906 | 10242 ft | 273 kts | 211° |
| 2026-05-06 19:13 | -34.30251 | 18.50333 | 10499 ft | 291 kts | 228° |
| 2026-05-06 19:13 | -34.31184 | 18.48066 | 10645 ft | 316 kts | 253° |
| 2026-05-06 19:13 | -34.31215 | 18.45326 | 10813 ft | 339 kts | 275° |
| 2026-05-06 19:13 | -34.30610 | 18.42492 | 11004 ft | 357 kts | 285° |
| 2026-05-06 19:14 | -34.29666 | 18.39652 | 11225 ft | 372 kts | 290° |
| 2026-05-06 19:14 | -34.28557 | 18.36764 | 11409 ft | 385 kts | 292° |
| 2026-05-06 19:14 | -34.27390 | 18.33798 | 11614 ft | 396 kts | 292° |
| 2026-05-06 19:14 | -34.26226 | 18.30748 | 11942 ft | 402 kts | 291° |
| 2026-05-06 19:15 | -34.25090 | 18.27640 | 12384 ft | 405 kts | 290° |
| 2026-05-06 19:15 | -34.23981 | 18.24496 | 12827 ft | 408 kts | 289° |
| 2026-05-06 19:15 | -34.22890 | 18.21321 | 13295 ft | 410 kts | 289° |
| 2026-05-06 19:15 | -34.21805 | 18.18122 | 13736 ft | 413 kts | 288° |
| 2026-05-06 19:16 | -34.20715 | 18.14891 | 14153 ft | 416 kts | 288° |
| 2026-05-06 19:16 | -34.19620 | 18.11647 | 14514 ft | 419 kts | 288° |
| 2026-05-06 19:16 | -34.18514 | 18.08378 | 14885 ft | 422 kts | 288° |
| 2026-05-06 19:16 | -34.17397 | 18.05087 | 15248 ft | 425 kts | 288° |
| 2026-05-06 19:17 | -34.16270 | 18.01775 | 15607 ft | 428 kts | 288° |
| 2026-05-06 19:17 | -34.15135 | 17.98446 | 16013 ft | 430 kts | 288° |
| 2026-05-06 19:17 | -34.13992 | 17.95100 | 16398 ft | 433 kts | 288° |
| 2026-05-06 19:17 | -34.12839 | 17.91729 | 16805 ft | 435 kts | 288° |
| 2026-05-06 19:18 | -34.11681 | 17.88349 | 17195 ft | 438 kts | 288° |
| 2026-05-06 19:18 | -34.10514 | 17.84944 | 17593 ft | 440 kts | 288° |
| 2026-05-06 19:18 | -34.09340 | 17.81524 | 17982 ft | 443 kts | 287° |
| 2026-05-06 19:18 | -34.08158 | 17.78082 | 18375 ft | 445 kts | 287° |
| 2026-05-06 19:19 | -34.06967 | 17.74618 | 18751 ft | 447 kts | 288° |
| 2026-05-06 19:19 | -34.05775 | 17.71157 | 19108 ft | 449 kts | 288° |
| 2026-05-06 19:19 | -34.04575 | 17.67678 | 19482 ft | 450 kts | 288° |
| 2026-05-06 19:19 | -34.03370 | 17.64183 | 19849 ft | 452 kts | 288° |
| 2026-05-06 19:20 | -34.02162 | 17.60686 | 20210 ft | 453 kts | 288° |
| 2026-05-06 19:20 | -34.00947 | 17.57173 | 20583 ft | 455 kts | 288° |
| 2026-05-06 19:20 | -33.99722 | 17.53636 | 20949 ft | 457 kts | 288° |
| 2026-05-06 19:20 | -33.98495 | 17.50095 | 21306 ft | 459 kts | 288° |
| 2026-05-06 19:21 | -33.97262 | 17.46540 | 21669 ft | 461 kts | 288° |
| 2026-05-06 19:21 | -33.96025 | 17.42979 | 22052 ft | 462 kts | 288° |
| 2026-05-06 19:21 | -33.94778 | 17.39394 | 22423 ft | 464 kts | 288° |
| 2026-05-06 19:21 | -33.93529 | 17.35804 | 22810 ft | 466 kts | 288° |
| 2026-05-06 19:22 | -33.92275 | 17.32206 | 23185 ft | 468 kts | 288° |
| 2026-05-06 19:22 | -33.91011 | 17.28585 | 23560 ft | 470 kts | 288° |
| 2026-05-06 19:22 | -33.89743 | 17.24955 | 23911 ft | 472 kts | 289° |
| 2026-05-06 19:22 | -33.88484 | 17.21352 | 24196 ft | 474 kts | 289° |
| 2026-05-06 19:23 | -33.87201 | 17.17688 | 24512 ft | 476 kts | 289° |
| 2026-05-06 19:23 | -33.85911 | 17.14009 | 24814 ft | 478 kts | 289° |
| 2026-05-06 19:23 | -33.84618 | 17.10323 | 25132 ft | 480 kts | 289° |
| 2026-05-06 19:23 | -33.83317 | 17.06621 | 25455 ft | 481 kts | 289° |
| 2026-05-06 19:24 | -33.82009 | 17.02904 | 25766 ft | 483 kts | 289° |
| 2026-05-06 19:24 | -33.80697 | 16.99178 | 26067 ft | 485 kts | 289° |
| 2026-05-06 19:24 | -33.79379 | 16.95438 | 26378 ft | 486 kts | 289° |
| 2026-05-06 19:24 | -33.78053 | 16.91682 | 26681 ft | 488 kts | 289° |
| 2026-05-06 19:25 | -33.76725 | 16.87924 | 26982 ft | 490 kts | 289° |
| 2026-05-06 19:25 | -33.75391 | 16.84154 | 27262 ft | 492 kts | 289° |
| 2026-05-06 19:25 | -33.74049 | 16.80364 | 27536 ft | 493 kts | 289° |
| 2026-05-06 19:25 | -33.72703 | 16.76569 | 27809 ft | 495 kts | 289° |
| 2026-05-06 19:26 | -33.71352 | 16.72763 | 28073 ft | 497 kts | 290° |
| 2026-05-06 19:26 | -33.69990 | 16.68933 | 28344 ft | 498 kts | 289° |
| 2026-05-06 19:26 | -33.68628 | 16.65107 | 28613 ft | 500 kts | 289° |
| 2026-05-06 19:26 | -33.67720 | 16.62556 | 28765 ft | 501 kts | 290° |
| 2026-05-06 19:27 | -33.66348 | 16.58708 | 29012 ft | 502 kts | 289° |
| 2026-05-06 19:27 | -33.64973 | 16.54858 | 29374 ft | 501 kts | 290° |
| 2026-05-06 19:27 | -33.63600 | 16.51020 | 29775 ft | 499 kts | 289° |
| 2026-05-06 19:27 | -33.62232 | 16.47199 | 30164 ft | 498 kts | 289° |
| 2026-05-06 19:28 | -33.60869 | 16.43397 | 30479 ft | 497 kts | 289° |
| 2026-05-06 19:28 | -33.59504 | 16.39593 | 30761 ft | 495 kts | 289° |
| 2026-05-06 19:28 | -33.58143 | 16.35802 | 31047 ft | 494 kts | 289° |
| 2026-05-06 19:28 | -33.56783 | 16.32019 | 31333 ft | 493 kts | 289° |
| 2026-05-06 19:29 | -33.55429 | 16.28256 | 31600 ft | 492 kts | 289° |
| 2026-05-06 19:29 | -33.54073 | 16.24494 | 31864 ft | 491 kts | 289° |
| 2026-05-06 19:29 | -33.52721 | 16.20744 | 32114 ft | 490 kts | 289° |
| 2026-05-06 19:29 | -33.51370 | 16.17002 | 32363 ft | 489 kts | 289° |
| 2026-05-06 19:30 | -33.50020 | 16.13269 | 32615 ft | 487 kts | 289° |
| 2026-05-06 19:30 | -33.48676 | 16.09556 | 32865 ft | 486 kts | 289° |
| 2026-05-06 19:30 | -33.47329 | 16.05840 | 33099 ft | 485 kts | 289° |
| 2026-05-06 19:30 | -33.45988 | 16.02143 | 33327 ft | 484 kts | 289° |
| 2026-05-06 19:31 | -33.44645 | 15.98446 | 33576 ft | 482 kts | 289° |
| 2026-05-06 19:31 | -33.43309 | 15.94771 | 33820 ft | 481 kts | 289° |
| 2026-05-06 19:31 | -33.40642 | 15.87450 | 34214 ft | 479 kts | 289° |
| 2026-05-06 19:32 | -33.37961 | 15.80096 | 34239 ft | 485 kts | 289° |
| 2026-05-06 19:32 | -33.35258 | 15.72710 | 34248 ft | 484 kts | 289° |
| 2026-05-06 19:33 | -33.32574 | 15.65394 | 34246 ft | 483 kts | 289° |
| 2026-05-06 19:33 | -33.29875 | 15.58051 | 34249 ft | 482 kts | 289° |
| 2026-05-06 19:34 | -33.27175 | 15.50719 | 34251 ft | 482 kts | 289° |
| 2026-05-06 19:34 | -33.24471 | 15.43394 | 34250 ft | 481 kts | 289° |
| 2026-05-06 19:35 | -33.21769 | 15.36090 | 34252 ft | 480 kts | 289° |
| 2026-05-06 19:35 | -33.19069 | 15.28806 | 34257 ft | 480 kts | 289° |
| 2026-05-06 19:36 | -33.16364 | 15.21526 | 34258 ft | 479 kts | 290° |
| 2026-05-06 19:36 | -33.13657 | 15.14256 | 34261 ft | 479 kts | 290° |
| 2026-05-06 19:37 | -33.10948 | 15.06997 | 34258 ft | 479 kts | 290° |
| 2026-05-06 19:37 | -33.08072 | 14.99830 | 34260 ft | 482 kts | 296° |
| 2026-05-06 19:38 | -33.04408 | 14.93103 | 34266 ft | 484 kts | 300° |
| 2026-05-06 19:38 | -33.00573 | 14.86488 | 34265 ft | 485 kts | 300° |
| 2026-05-06 19:39 | -32.96717 | 14.79902 | 34265 ft | 485 kts | 300° |
| 2026-05-06 19:39 | -32.92869 | 14.73307 | 34267 ft | 484 kts | 300° |
| 2026-05-06 19:40 | -32.89033 | 14.66718 | 34270 ft | 484 kts | 300° |
| 2026-05-06 19:40 | -32.85222 | 14.60176 | 34268 ft | 484 kts | 300° |
| 2026-05-06 19:41 | -32.81376 | 14.53587 | 34272 ft | 484 kts | 300° |
| 2026-05-06 19:41 | -32.77531 | 14.47012 | 34273 ft | 484 kts | 300° |
| 2026-05-06 19:42 | -32.73683 | 14.40445 | 34276 ft | 484 kts | 300° |
| 2026-05-06 19:42 | -32.69828 | 14.33877 | 34276 ft | 484 kts | 300° |
| 2026-05-06 19:43 | -32.65974 | 14.27322 | 34282 ft | 484 kts | 300° |
| 2026-05-06 19:43 | -32.62111 | 14.20764 | 34279 ft | 485 kts | 300° |
| 2026-05-06 19:44 | -32.58244 | 14.14210 | 34276 ft | 485 kts | 300° |
| 2026-05-06 19:44 | -32.54402 | 14.07710 | 34281 ft | 485 kts | 300° |
| 2026-05-06 19:45 | -32.50529 | 14.01169 | 34280 ft | 485 kts | 301° |
| 2026-05-06 19:45 | -32.46655 | 13.94636 | 34283 ft | 485 kts | 301° |
| 2026-05-06 19:46 | -32.42778 | 13.88110 | 34283 ft | 485 kts | 301° |
| 2026-05-06 19:46 | -32.38899 | 13.81592 | 34286 ft | 484 kts | 301° |
| 2026-05-06 19:47 | -32.35014 | 13.75075 | 34287 ft | 484 kts | 301° |
| 2026-05-06 19:47 | -32.31125 | 13.68563 | 34285 ft | 484 kts | 301° |
| 2026-05-06 19:48 | -32.27237 | 13.62064 | 34287 ft | 484 kts | 301° |
| 2026-05-06 19:48 | -32.23348 | 13.55573 | 34305 ft | 484 kts | 301° |
| 2026-05-06 19:49 | -32.19455 | 13.49089 | 34284 ft | 484 kts | 301° |
| 2026-05-06 19:49 | -32.15559 | 13.42609 | 34302 ft | 484 kts | 301° |
| 2026-05-06 19:50 | -32.11658 | 13.36132 | 34297 ft | 484 kts | 301° |